Terminal Aerodrome Forecast
Issued by NWS Mt. Holly, NJ

Current Version | Previous Version | Text Only | Print | Product List | Glossary On
Versions: 1 2 3 4 5 6 7 8 9 10 11 12 13 14 15 16 17 18 19 20 21 22 23 24 25 26 27 28 29 30 31 32 33 34 35 36 37 38 39 40 41 42 43 44 45 46
141
FTUS41 KPHI 100113 AAA
TAFABE
TAF AMD
KABE 100113Z 1001/1024 VRB02KT 2SM -SN SCT008 OVC015
      TEMPO 1001/1004 3/4SM -SN OVC005
     FM100400 35004KT 2SM -SN OVC010
     FM100700 30004KT P6SM VCSH OVC010
     FM100900 29006KT P6SM OVC025
     FM101100 29008KT P6SM SCT020 BKN050
     FM101400 29012G20KT P6SM BKN050=

USA.gov is the U.S. government's official web portal to all federal, state and local government web resources and services.